MMTC/TRC METAR and TAF weather

Enter ICAO airport designator
Station Type Date Time Source
MMTC METAR 2022/11/27 03:41 UTC NOAA

MMTC 270341Z 26003KT 6SM SKC 12/01 A3010 RMK HZ


Station Type Date Time Source
MMTC Decoded METAR 2022/11/27 03:41 UTC NOAA

Torreon, Coah., Mexico (MMTC) 25-32N 103-27W 1150M
Nov 26, 2022 - 10:41 PM EST / 2022.11.27 0341 UTC
Wind: from the W (260 degrees) at 3 MPH (3 KT):0
Visibility: 6 mile(s):0
Sky conditions: clear
Temperature: 53 F (12 C)
Dew Point: 33 F (1 C)
Relative Humidity: 46%
Pressure (altimeter): 30.1 in. Hg (1019 hPa)
ob: MMTC 270341Z 26003KT 6SM SKC 12/01 A3010 RMK HZ
cycle: 3

Station Type Date Time Source
MMTC TAF 2022/11/27 06:11 UTC NOAA

TAF MMTC 270504Z 2706/2806 00000KT 6SM HZ SKC
FM271800 19007KT P6SM SCT100 SCT250
FM280500 00000KT P6SM SKC

Example: see airport list